Aérodrome :
LOGIN :

S'inscrire | Disclaimer

   EN    FR    IT 

 










Légende :    VFR   VFR Marginal   IFR   IFR Intensif   IFR Très Intensif
Visi : 
Plafond : 
>= 8 km
>= 3000ft
5 à 8 km
1000 à 3000 ft
1500m à 5 km
500 à 1000 ft
800 à 1500m
200 à 500 ft
< 800m
< 200 ft
Symboles :   Orages  Brouillard  Fortes neiges  Fortes précipitations  Vent > 20 kt
SIGMETs :   Divers  Orages  Givrage  Turbulence  Onde Orograph.  Cendres Volcan.






- Altitude de l'aérodrome : 909 ft
- Code IATA : KSF


EDVK - Kassel Calden

DERNIER METAR :
  • 260520Z 22006KT 9999 BKN021 10/08 Q1019

METARs EXPIRÉS :
  • 260450Z VRB01KT 9999 BKN022 09/08 Q1019
  • 260420Z 20003KT 160V230 9999 BKN021 09/08 Q1019
  • 260350Z 19003KT 9999 BKN023 09/08 Q1019
  • 260320Z 20004KT 160V240 9999 BKN021 09/08 Q1019
  • 260250Z VRB01KT 9999 BKN021 08/07 Q1019

TAF TAF EDVK
Valide du 26 à 06h jusqu'au 26 à 15h UTC


260500Z 2606/2615 21004KT 9999 BKN020
BECMG 2608/2610 22009KT



MET'MAP, la Météo Aéronautique d'un coup d'oeil ! - Copyright ORBIFLY Décembre 2007 - Disclaimer

ORBIFLY MET'MAP TEAM :

Programmation & Développement : Alexandra Zaïnal
Sur une idée originale de : Baudouin d'Aumeries
Assistance à la programmation : Marc-Olivier Méhu
Soutien technique & logistique : Manuel Goepfert

Contact : metmap@orbifly.com




SOURCES & CREDITS :

   NOAA